createdAt,value
2019-03-27T00:00:00.967Z,92.30
2019-03-27T00:02:29.319Z,92.30
2019-03-27T00:04:57.594Z,92.30
2019-03-27T00:07:26.051Z,92.40
2019-03-27T00:09:54.468Z,92.20
2019-03-27T00:12:22.716Z,92.40
2019-03-27T00:14:51.066Z,92.20
2019-03-27T00:17:19.560Z,92.10
2019-03-27T00:19:48.010Z,92.10
2019-03-27T00:22:16.344Z,92.70
2019-03-27T00:24:44.677Z,92.80
2019-03-27T00:27:13.081Z,92.90
2019-03-27T00:29:41.586Z,93.00
2019-03-27T00:32:09.968Z,92.60
2019-03-27T00:34:38.470Z,92.60
2019-03-27T00:37:06.759Z,93.00
2019-03-27T00:39:35.100Z,93.10
2019-03-27T00:42:03.557Z,93.30
2019-03-27T00:44:32.037Z,93.60
2019-03-27T00:47:00.163Z,94.20
2019-03-27T00:49:28.693Z,94.10
2019-03-27T00:51:56.925Z,93.90
2019-03-27T00:54:25.199Z,93.90
2019-03-27T00:56:53.544Z,94.10
2019-03-27T00:59:21.952Z,94.10
2019-03-27T01:01:50.260Z,94.20
2019-03-27T01:04:18.548Z,94.40
2019-03-27T01:06:47.033Z,94.50
2019-03-27T01:09:15.343Z,94.60
2019-03-27T01:11:43.823Z,94.60
2019-03-27T01:14:12.212Z,94.60
2019-03-27T01:16:40.578Z,94.90
2019-03-27T01:19:08.900Z,95.10
2019-03-27T01:24:20.032Z,95.30
2019-03-27T01:26:48.262Z,95.70
2019-03-27T01:29:16.593Z,95.90
2019-03-27T01:31:45.055Z,96.00
2019-03-27T01:34:13.318Z,96.00
2019-03-27T01:36:41.838Z,96.20
2019-03-27T01:39:10.185Z,96.20
2019-03-27T01:41:38.493Z,96.40
2019-03-27T01:44:06.666Z,96.50
2019-03-27T01:46:35.025Z,96.60
2019-03-27T01:49:03.419Z,96.90
2019-03-27T01:51:32.883Z,96.70
2019-03-27T01:54:01.241Z,96.80
2019-03-27T01:56:29.535Z,96.80
2019-03-27T01:58:57.942Z,96.90
2019-03-27T02:01:26.497Z,97.10
2019-03-27T02:03:54.861Z,97.30
2019-03-27T02:06:23.406Z,97.50
2019-03-27T02:08:51.721Z,97.50
2019-03-27T02:11:20.019Z,97.50
2019-03-27T02:13:48.509Z,97.60
2019-03-27T02:16:16.873Z,97.80
2019-03-27T02:18:45.161Z,97.80
2019-03-27T02:21:14.644Z,97.90
2019-03-27T02:23:43.338Z,97.90
2019-03-27T02:26:11.859Z,98.00
2019-03-27T02:28:40.184Z,98.10
2019-03-27T02:31:08.493Z,98.30
2019-03-27T02:33:36.767Z,98.50
2019-03-27T02:36:05.137Z,98.40
2019-03-27T02:38:33.386Z,98.60
2019-03-27T02:41:01.548Z,98.60
2019-03-27T02:43:29.974Z,98.80
2019-03-27T02:45:58.161Z,98.80
2019-03-27T02:48:27.322Z,99.10
2019-03-27T02:50:55.707Z,99.10
2019-03-27T02:53:23.893Z,99.00
2019-03-27T02:55:52.385Z,99.10
2019-03-27T02:58:20.676Z,99.00
2019-03-27T03:00:49.419Z,99.20
2019-03-27T03:03:17.593Z,99.20
2019-03-27T03:05:46.225Z,99.40
2019-03-27T03:08:14.701Z,99.40
2019-03-27T03:10:45.475Z,99.30
2019-03-27T03:13:13.206Z,99.20
2019-03-27T03:15:42.160Z,99.10
2019-03-27T03:18:11.441Z,99.20
2019-03-27T03:20:39.711Z,99.40
2019-03-27T03:23:08.080Z,99.40
2019-03-27T03:25:36.248Z,99.50
2019-03-27T03:28:04.735Z,99.80
2019-03-27T03:30:33.037Z,99.90
2019-03-27T03:33:01.227Z,99.90
2019-03-27T03:35:29.700Z,99.90
2019-03-27T03:37:58.043Z,99.90
2019-03-27T03:40:26.380Z,99.90
2019-03-27T03:42:54.664Z,99.90
2019-03-27T03:45:23.074Z,99.90
2019-03-27T03:47:51.415Z,99.90
2019-03-27T03:50:38.532Z,99.90
2019-03-27T03:53:09.473Z,99.90
2019-03-27T03:55:38.953Z,99.90
2019-03-27T03:58:10.086Z,99.90
2019-03-27T04:00:38.951Z,99.90
2019-03-27T04:03:07.497Z,99.90
2019-03-27T04:05:35.876Z,99.90
2019-03-27T04:08:04.319Z,99.90
2019-03-27T04:10:32.807Z,99.90
2019-03-27T04:13:01.217Z,99.90
2019-03-27T04:15:29.727Z,99.90
2019-03-27T04:17:58.030Z,99.90
2019-03-27T04:20:26.315Z,99.90
2019-03-27T04:22:54.455Z,99.90
2019-03-27T04:25:22.637Z,99.90
2019-03-27T04:27:50.932Z,99.90
2019-03-27T04:30:19.482Z,99.90
2019-03-27T04:32:47.755Z,99.90
2019-03-27T04:35:16.011Z,99.90
2019-03-27T04:37:44.323Z,99.90
2019-03-27T04:40:12.692Z,99.90
2019-03-27T04:42:41.078Z,99.90
2019-03-27T04:45:10.235Z,99.90
2019-03-27T04:47:38.468Z,99.90
2019-03-27T04:50:07.332Z,99.90
2019-03-27T04:52:35.710Z,99.90
2019-03-27T04:55:05.107Z,99.90
2019-03-27T04:57:33.779Z,99.90
2019-03-27T05:00:02.310Z,99.90
2019-03-27T05:02:31.717Z,99.90
2019-03-27T05:05:00.376Z,99.90
2019-03-27T05:07:29.148Z,99.90
2019-03-27T05:09:57.422Z,99.90
2019-03-27T05:12:26.461Z,99.90
2019-03-27T05:14:54.592Z,99.90
2019-03-27T05:17:23.121Z,99.90
2019-03-27T05:19:51.391Z,99.90
2019-03-27T05:22:19.593Z,99.90
2019-03-27T05:24:48.107Z,99.90
2019-03-27T05:27:16.305Z,99.90
2019-03-27T05:29:44.478Z,99.90
2019-03-27T05:32:12.815Z,99.90
2019-03-27T05:34:41.279Z,99.90
2019-03-27T05:37:09.473Z,99.90
2019-03-27T05:39:37.930Z,99.90
2019-03-27T05:42:06.099Z,99.90
2019-03-27T05:44:34.317Z,99.90
2019-03-27T05:47:04.463Z,99.90
2019-03-27T05:49:33.125Z,99.90
2019-03-27T05:52:01.321Z,99.90
2019-03-27T05:54:29.490Z,99.90
2019-03-27T05:56:57.793Z,99.90
2019-03-27T05:59:26.948Z,99.90
2019-03-27T06:01:55.334Z,99.90
2019-03-27T06:04:23.496Z,99.90
2019-03-27T06:06:51.934Z,99.90
2019-03-27T06:09:20.378Z,99.80
2019-03-27T06:11:48.598Z,99.70
2019-03-27T06:14:16.967Z,99.40
2019-03-27T06:16:45.280Z,98.90
2019-03-27T06:19:13.776Z,98.60
2019-03-27T06:21:42.282Z,97.50
2019-03-27T06:24:10.593Z,96.70
2019-03-27T06:26:38.864Z,95.60
2019-03-27T06:29:07.208Z,94.40
2019-03-27T06:31:35.483Z,92.80
2019-03-27T06:34:03.773Z,92.10
2019-03-27T06:36:32.174Z,90.40
2019-03-27T06:39:00.685Z,89.40
2019-03-27T06:41:29.110Z,87.40
2019-03-27T06:43:57.488Z,84.20
2019-03-27T06:46:25.792Z,81.20
2019-03-27T06:48:53.935Z,80.10
2019-03-27T06:51:25.029Z,77.20
2019-03-27T06:53:52.388Z,74.50
2019-03-27T06:56:21.524Z,72.70
2019-03-27T06:58:54.866Z,69.40
2019-03-27T07:01:20.153Z,66.70
2019-03-27T07:03:48.863Z,64.60
2019-03-27T07:06:17.531Z,62.30
2019-03-27T07:08:45.698Z,61.30
2019-03-27T07:11:13.963Z,62.70
2019-03-27T07:13:42.267Z,62.50
2019-03-27T07:16:10.866Z,58.90
2019-03-27T07:18:40.270Z,57.10
2019-03-27T07:21:09.026Z,56.80
2019-03-27T07:23:37.366Z,55.90
2019-03-27T07:26:05.781Z,54.80
2019-03-27T07:28:34.948Z,52.90
2019-03-27T07:31:03.353Z,51.20
2019-03-27T07:33:31.465Z,51.20
2019-03-27T07:35:59.865Z,50.00
2019-03-27T07:38:28.265Z,44.90
2019-03-27T07:40:56.566Z,45.10
2019-03-27T07:43:24.995Z,45.70
2019-03-27T07:45:53.388Z,45.40
2019-03-27T07:48:21.626Z,45.20
2019-03-27T07:50:49.883Z,44.80
2019-03-27T07:53:18.140Z,43.90
2019-03-27T07:55:46.570Z,41.80
2019-03-27T07:58:14.766Z,40.60
2019-03-27T08:00:43.959Z,40.10
2019-03-27T08:03:12.345Z,38.50
2019-03-27T08:05:40.788Z,36.60
2019-03-27T08:08:09.887Z,36.80
2019-03-27T08:10:40.709Z,36.30
2019-03-27T08:13:09.154Z,34.40
2019-03-27T08:15:40.671Z,34.50
2019-03-27T08:18:08.030Z,37.10
2019-03-27T08:20:36.403Z,39.40
2019-03-27T08:23:04.692Z,38.50
2019-03-27T08:25:33.003Z,35.80
2019-03-27T08:28:01.486Z,34.30
2019-03-27T08:30:29.930Z,33.80
2019-03-27T08:32:58.225Z,32.90
2019-03-27T08:35:27.250Z,31.30
2019-03-27T08:37:55.674Z,30.30
2019-03-27T08:40:24.772Z,30.00
2019-03-27T08:42:53.181Z,29.20
2019-03-27T08:45:21.994Z,29.00
2019-03-27T08:47:51.082Z,28.30
2019-03-27T08:50:19.330Z,26.80
2019-03-27T08:52:47.947Z,25.70
2019-03-27T08:55:16.795Z,25.30
2019-03-27T08:57:45.079Z,24.70
2019-03-27T09:00:16.105Z,24.30
2019-03-27T09:02:44.582Z,24.90
2019-03-27T09:05:13.176Z,25.60
2019-03-27T09:07:41.654Z,25.50
2019-03-27T09:10:11.041Z,24.10
2019-03-27T09:12:39.447Z,23.90
2019-03-27T09:15:08.431Z,24.00
2019-03-27T09:17:36.895Z,23.60
2019-03-27T09:20:06.095Z,23.40
2019-03-27T09:22:34.431Z,23.00
2019-03-27T09:25:03.290Z,22.60
2019-03-27T09:27:31.554Z,22.10
2019-03-27T09:30:00.366Z,21.30
2019-03-27T09:32:28.748Z,21.50
2019-03-27T09:34:57.074Z,21.80
2019-03-27T09:37:25.298Z,21.30
2019-03-27T09:39:53.502Z,21.20
2019-03-27T09:42:21.706Z,20.40
2019-03-27T09:44:50.182Z,20.50
2019-03-27T09:47:18.454Z,20.70
2019-03-27T09:49:49.845Z,20.60
2019-03-27T09:52:19.337Z,20.60
2019-03-27T09:54:48.739Z,20.60
2019-03-27T09:57:16.859Z,19.70
2019-03-27T09:59:45.050Z,19.40
2019-03-27T10:02:13.373Z,19.60
2019-03-27T10:04:41.797Z,19.90
2019-03-27T10:07:10.243Z,19.30
2019-03-27T10:09:38.730Z,19.40
2019-03-27T10:12:06.995Z,19.50
2019-03-27T10:14:35.094Z,19.40
2019-03-27T10:17:03.611Z,19.50
2019-03-27T10:19:31.876Z,18.90
2019-03-27T10:22:00.440Z,18.90
2019-03-27T10:24:28.770Z,19.30
2019-03-27T10:26:57.152Z,18.60
2019-03-27T10:29:25.677Z,18.40
2019-03-27T10:31:54.047Z,18.40
2019-03-27T10:34:22.289Z,18.40
2019-03-27T10:36:50.766Z,18.40
2019-03-27T10:39:19.161Z,18.40
2019-03-27T10:41:47.568Z,18.30
2019-03-27T10:44:18.847Z,18.40
2019-03-27T10:46:47.176Z,18.30
2019-03-27T10:49:15.529Z,17.80
2019-03-27T10:51:43.948Z,17.70
2019-03-27T10:54:12.433Z,17.20
2019-03-27T10:56:40.845Z,17.30
2019-03-27T10:59:09.499Z,17.20
2019-03-27T11:01:38.114Z,17.70
2019-03-27T11:04:06.589Z,17.30
2019-03-27T11:06:35.117Z,16.80
2019-03-27T11:09:07.346Z,17.00
2019-03-27T11:11:36.177Z,17.10
2019-03-27T11:14:04.721Z,17.00
2019-03-27T11:16:33.093Z,16.60
2019-03-27T11:19:01.533Z,16.50
2019-03-27T11:21:30.010Z,16.20
2019-03-27T11:23:58.271Z,16.50
2019-03-27T11:26:26.568Z,16.40
2019-03-27T11:28:54.943Z,16.30
2019-03-27T11:31:23.592Z,16.70
2019-03-27T11:33:51.923Z,16.70
2019-03-27T11:36:20.418Z,16.70
2019-03-27T11:38:48.791Z,16.90
2019-03-27T11:41:17.173Z,16.60
2019-03-27T11:43:54.884Z,16.80
2019-03-27T11:46:16.822Z,16.90
2019-03-27T11:48:45.205Z,16.80
2019-03-27T11:51:13.618Z,17.00
2019-03-27T11:53:41.894Z,16.70
2019-03-27T11:56:10.136Z,16.20
2019-03-27T11:58:38.638Z,16.40
2019-03-27T12:01:07.179Z,16.40
2019-03-27T12:03:35.717Z,16.20
2019-03-27T12:06:04.235Z,16.60
2019-03-27T12:08:32.502Z,16.60
2019-03-27T12:11:00.941Z,16.40
2019-03-27T12:13:29.640Z,16.40
2019-03-27T12:15:57.870Z,16.40
2019-03-27T12:18:45.055Z,15.80
2019-03-27T12:21:13.580Z,16.30
2019-03-27T12:23:41.955Z,16.00
2019-03-27T12:26:10.248Z,16.10
2019-03-27T12:28:38.645Z,16.00
2019-03-27T12:31:07.107Z,15.90
2019-03-27T12:33:35.310Z,15.80
2019-03-27T12:36:03.831Z,15.60
2019-03-27T12:38:32.195Z,15.70
2019-03-27T12:41:00.743Z,15.80
2019-03-27T12:43:29.482Z,16.10
2019-03-27T12:45:57.769Z,15.90
2019-03-27T12:48:26.252Z,16.10
2019-03-27T12:50:54.595Z,16.30
2019-03-27T12:53:23.414Z,16.40
2019-03-27T12:55:52.140Z,16.60
2019-03-27T12:58:20.305Z,16.40
2019-03-27T13:00:48.769Z,16.10
2019-03-27T13:03:17.251Z,16.50
2019-03-27T13:05:45.410Z,16.40
2019-03-27T13:08:14.185Z,16.50
2019-03-27T13:10:42.434Z,16.60
2019-03-27T13:13:10.717Z,16.90
2019-03-27T13:15:39.135Z,17.20
2019-03-27T13:18:07.491Z,17.70
2019-03-27T13:20:35.828Z,18.00
2019-03-27T13:23:04.269Z,18.00
2019-03-27T13:25:32.782Z,17.30
2019-03-27T13:28:01.225Z,17.50
2019-03-27T13:30:29.501Z,17.50
2019-03-27T13:32:57.987Z,18.00
2019-03-27T13:35:26.506Z,18.30
2019-03-27T13:37:55.220Z,18.20
2019-03-27T13:40:25.820Z,18.30
2019-03-27T13:42:54.881Z,18.10
2019-03-27T13:45:23.396Z,18.40
2019-03-27T13:47:52.137Z,18.50
2019-03-27T13:52:47.215Z,18.30
2019-03-27T13:55:15.904Z,18.80
2019-03-27T13:57:45.634Z,19.40
2019-03-27T14:00:17.572Z,19.80
2019-03-27T14:02:46.138Z,19.80
2019-03-27T14:05:14.755Z,20.00
2019-03-27T14:07:43.201Z,20.80
2019-03-27T14:10:12.400Z,22.20
2019-03-27T14:12:41.280Z,23.10
2019-03-27T14:15:14.098Z,23.20
2019-03-27T14:17:42.552Z,23.00
2019-03-27T14:20:12.810Z,23.50
2019-03-27T14:22:41.418Z,25.20
2019-03-27T14:25:10.673Z,25.30
2019-03-27T14:27:40.190Z,25.10
2019-03-27T14:30:10.854Z,25.20
2019-03-27T14:32:39.048Z,25.30
2019-03-27T14:35:08.099Z,26.10
2019-03-27T14:37:37.161Z,27.10
2019-03-27T14:40:08.440Z,28.60
2019-03-27T14:42:38.317Z,29.50
2019-03-27T14:45:08.715Z,30.30
2019-03-27T14:47:37.454Z,31.60
2019-03-27T14:50:09.017Z,32.40
2019-03-27T14:52:39.060Z,33.00
2019-03-27T14:55:09.843Z,33.30
2019-03-27T14:57:38.848Z,34.20
2019-03-27T15:00:19.192Z,35.10
2019-03-27T15:02:49.442Z,35.60
2019-03-27T15:05:18.241Z,35.90
2019-03-27T15:07:46.761Z,36.70
2019-03-27T15:10:15.704Z,37.40
2019-03-27T15:12:43.856Z,38.70
2019-03-27T15:15:13.954Z,38.40
2019-03-27T15:17:42.360Z,38.80
2019-03-27T15:20:13.396Z,39.70
2019-03-27T15:22:41.820Z,39.90
2019-03-27T15:25:47.974Z,40.30
2019-03-27T15:28:17.872Z,40.40
2019-03-27T15:30:46.263Z,40.80
2019-03-27T15:33:14.493Z,41.40
2019-03-27T15:35:44.643Z,42.00
2019-03-27T15:38:13.543Z,41.60
2019-03-27T15:40:44.907Z,41.90
2019-03-27T15:43:13.399Z,42.00
2019-03-27T15:45:42.069Z,42.10
2019-03-27T15:48:10.927Z,42.90
2019-03-27T15:50:39.329Z,42.80
2019-03-27T15:53:07.990Z,43.00
2019-03-27T15:55:36.254Z,43.40
2019-03-27T15:58:05.892Z,44.70
2019-03-27T16:00:34.467Z,44.40
2019-03-27T16:03:02.659Z,44.90
2019-03-27T16:05:30.888Z,45.20
2019-03-27T16:08:00.423Z,45.70
2019-03-27T16:10:29.082Z,46.30
2019-03-27T16:13:00.115Z,46.40
2019-03-27T16:15:28.418Z,46.70
2019-03-27T16:17:56.844Z,47.10
2019-03-27T16:20:25.178Z,47.40
2019-03-27T16:22:53.580Z,47.80
2019-03-27T16:25:21.983Z,47.90
2019-03-27T16:27:50.852Z,48.40
2019-03-27T16:30:19.621Z,48.50
2019-03-27T16:32:48.886Z,48.90
2019-03-27T16:35:18.256Z,49.80
2019-03-27T16:37:49.187Z,49.50
2019-03-27T16:40:57.174Z,50.00
2019-03-27T16:43:25.338Z,50.50
2019-03-27T16:45:55.015Z,50.60
2019-03-27T16:48:23.835Z,51.10
2019-03-27T16:50:52.165Z,51.60
2019-03-27T16:53:32.114Z,52.00
2019-03-27T16:56:01.701Z,53.10
2019-03-27T16:58:29.931Z,52.70
2019-03-27T17:00:58.231Z,53.40
2019-03-27T17:03:26.775Z,53.80
2019-03-27T17:05:55.212Z,53.60
2019-03-27T17:08:23.460Z,53.90
2019-03-27T17:10:51.804Z,55.00
2019-03-27T17:13:20.182Z,54.80
2019-03-27T17:15:48.588Z,55.20
2019-03-27T17:18:18.115Z,55.70
2019-03-27T17:20:47.662Z,56.20
2019-03-27T17:23:18.402Z,56.20
2019-03-27T17:25:46.631Z,56.40
2019-03-27T17:28:16.706Z,57.10
2019-03-27T17:30:49.199Z,57.70
2019-03-27T17:33:17.487Z,58.10
2019-03-27T17:35:47.379Z,58.50
2019-03-27T17:38:15.591Z,59.10
2019-03-27T17:40:45.515Z,60.60
2019-03-27T17:43:13.743Z,61.50
2019-03-27T17:45:42.518Z,61.50
2019-03-27T17:48:11.001Z,62.00
2019-03-27T17:50:41.201Z,62.80
2019-03-27T17:53:10.266Z,63.40
2019-03-27T17:55:38.878Z,64.70
2019-03-27T17:58:07.978Z,66.10
2019-03-27T18:01:07.525Z,66.40
2019-03-27T18:03:35.966Z,66.40
2019-03-27T18:06:04.521Z,67.80
2019-03-27T18:08:32.717Z,69.70
2019-03-27T18:11:01.033Z,69.30
2019-03-27T18:13:30.358Z,69.60
2019-03-27T18:16:00.735Z,70.20
2019-03-27T18:18:30.326Z,70.80
2019-03-27T18:20:59.162Z,71.40
2019-03-27T18:23:29.071Z,71.90
2019-03-27T18:25:57.659Z,72.40
2019-03-27T18:28:25.890Z,72.80
2019-03-27T18:30:54.268Z,73.40
2019-03-27T18:33:22.826Z,74.10
2019-03-27T18:35:52.245Z,74.80
2019-03-27T18:38:21.173Z,75.60
2019-03-27T18:40:50.449Z,76.30
2019-03-27T18:43:19.680Z,77.50
2019-03-27T18:45:48.544Z,78.40
2019-03-27T18:48:17.188Z,79.60
2019-03-27T18:50:45.565Z,80.20
2019-03-27T18:53:14.083Z,81.70
2019-03-27T18:55:42.452Z,81.60
2019-03-27T18:58:10.939Z,82.10
2019-03-27T19:00:40.220Z,82.60
2019-03-27T19:03:09.478Z,82.70
2019-03-27T19:05:38.613Z,83.30
2019-03-27T19:08:08.566Z,84.20
2019-03-27T19:10:37.201Z,84.50
2019-03-27T19:13:05.915Z,85.20
2019-03-27T19:15:34.978Z,85.60
2019-03-27T19:18:06.478Z,85.80
2019-03-27T19:20:35.219Z,86.20
2019-03-27T19:23:04.490Z,86.50
2019-03-27T19:25:33.615Z,86.70
2019-03-27T19:28:03.669Z,87.30
2019-03-27T19:30:33.015Z,88.00
2019-03-27T19:33:01.622Z,87.80
2019-03-27T19:35:30.029Z,88.20
2019-03-27T19:37:59.620Z,88.40
2019-03-27T19:40:27.991Z,88.70
2019-03-27T19:42:56.387Z,88.80
2019-03-27T19:45:24.962Z,88.80
2019-03-27T19:47:53.694Z,89.40
2019-03-27T19:50:22.405Z,89.70
2019-03-27T19:52:51.843Z,89.90
2019-03-27T19:55:20.422Z,90.10
2019-03-27T19:57:48.836Z,90.30
2019-03-27T20:00:17.881Z,90.30
2019-03-27T20:02:46.421Z,90.50
2019-03-27T20:05:15.151Z,90.60
2019-03-27T20:07:43.443Z,90.70
2019-03-27T20:10:13.204Z,90.80
2019-03-27T20:12:41.674Z,90.80
2019-03-27T20:15:12.804Z,90.90
2019-03-27T20:17:41.533Z,91.10
2019-03-27T20:20:11.067Z,91.30
2019-03-27T20:22:42.576Z,91.40
2019-03-27T20:25:14.788Z,91.60
2019-03-27T20:27:43.716Z,91.80
2019-03-27T20:30:15.741Z,91.70
2019-03-27T20:32:45.312Z,92.10
2019-03-27T20:35:14.347Z,92.00
2019-03-27T20:37:43.047Z,92.30
2019-03-27T20:40:14.461Z,93.20
2019-03-27T20:42:43.434Z,92.20
2019-03-27T20:45:13.325Z,92.10
2019-03-27T20:47:43.013Z,92.10
2019-03-27T20:50:12.132Z,92.00
2019-03-27T20:53:46.427Z,92.10
2019-03-27T20:56:17.096Z,92.00
2019-03-27T20:58:45.441Z,92.00
2019-03-27T21:01:15.154Z,92.10
2019-03-27T21:03:47.235Z,92.20
2019-03-27T21:06:25.208Z,92.20
2019-03-27T21:08:55.595Z,92.50
2019-03-27T21:11:24.454Z,92.50
2019-03-27T21:13:54.436Z,92.60
2019-03-27T21:16:27.489Z,92.50
2019-03-27T21:18:57.818Z,92.60
2019-03-27T21:21:33.527Z,92.70
2019-03-27T21:24:03.223Z,92.70
2019-03-27T21:26:32.415Z,92.80
2019-03-27T21:29:01.022Z,92.80
2019-03-27T21:31:29.508Z,92.80
2019-03-27T21:33:57.959Z,92.90
2019-03-27T21:36:27.052Z,93.00
2019-03-27T21:38:55.558Z,93.20
2019-03-27T21:41:25.141Z,93.30
2019-03-27T21:43:53.669Z,93.40
2019-03-27T21:46:22.081Z,93.40
2019-03-27T21:48:51.835Z,93.50
2019-03-27T21:51:20.876Z,93.60
2019-03-27T21:53:50.931Z,93.60
2019-03-27T21:56:19.252Z,93.70
2019-03-27T21:58:47.577Z,93.70
2019-03-27T22:01:16.682Z,93.70
2019-03-27T22:03:46.415Z,93.80
2019-03-27T22:06:15.057Z,93.80
2019-03-27T22:08:43.650Z,94.00
2019-03-27T22:11:13.055Z,94.20
2019-03-27T22:13:41.492Z,94.40
2019-03-27T22:16:10.159Z,94.40
2019-03-27T22:18:38.830Z,94.70
2019-03-27T22:21:07.172Z,94.60
2019-03-27T22:23:35.468Z,94.60
2019-03-27T22:26:26.016Z,94.60
2019-03-27T22:28:54.792Z,94.50
2019-03-27T22:31:23.189Z,94.90
2019-03-27T22:33:51.874Z,94.60
2019-03-27T22:36:20.425Z,94.70
2019-03-27T22:38:48.978Z,95.00
2019-03-27T22:41:17.418Z,94.90
2019-03-27T22:43:45.811Z,94.80
2019-03-27T22:46:14.189Z,95.10
2019-03-27T22:48:42.540Z,95.10
2019-03-27T22:51:11.023Z,95.00
2019-03-27T22:53:39.160Z,95.00
2019-03-27T22:56:10.084Z,95.00
2019-03-27T22:58:38.226Z,95.00
2019-03-27T23:01:06.593Z,94.70
2019-03-27T23:03:36.832Z,94.70
2019-03-27T23:06:05.268Z,94.20
2019-03-27T23:08:33.609Z,93.80
2019-03-27T23:11:02.104Z,93.80
2019-03-27T23:13:30.324Z,93.50
2019-03-27T23:15:58.700Z,93.20
2019-03-27T23:18:27.209Z,93.30
2019-03-27T23:20:55.606Z,93.10
2019-03-27T23:23:23.857Z,93.10
2019-03-27T23:26:02.413Z,92.90
2019-03-27T23:28:22.529Z,92.80
2019-03-27T23:30:50.958Z,92.70
2019-03-27T23:33:20.318Z,92.40
2019-03-27T23:35:48.844Z,92.40
2019-03-27T23:38:18.221Z,92.40
2019-03-27T23:40:46.946Z,92.30
2019-03-27T23:43:15.206Z,92.20
2019-03-27T23:45:43.520Z,92.30
2019-03-27T23:48:11.768Z,92.50
2019-03-27T23:50:40.080Z,92.30
2019-03-27T23:53:08.349Z,92.40
2019-03-27T23:55:36.860Z,92.10
2019-03-27T23:58:05.375Z,92.20
